sensor_id;sensor_type;location;lat;lon;timestamp;P1;durP1;ratioP1;P2;durP2;ratioP2
14294;SDS011;7231;59.370;18.016;2024-02-21T00:00:19;8.90;;;6.43;;
14294;SDS011;7231;59.370;18.016;2024-02-21T00:02:47;8.30;;;5.97;;
14294;SDS011;7231;59.370;18.016;2024-02-21T00:05:15;8.63;;;6.67;;
14294;SDS011;7231;59.370;18.016;2024-02-21T00:07:44;8.93;;;6.63;;
14294;SDS011;7231;59.370;18.016;2024-02-21T00:10:12;8.80;;;6.53;;
14294;SDS011;7231;59.370;18.016;2024-02-21T00:12:40;10.50;;;6.90;;
14294;SDS011;7231;59.370;18.016;2024-02-21T00:15:10;7.53;;;5.47;;
14294;SDS011;7231;59.370;18.016;2024-02-21T00:17:38;7.23;;;4.77;;
14294;SDS011;7231;59.370;18.016;2024-02-21T00:20:07;8.53;;;6.00;;
14294;SDS011;7231;59.370;18.016;2024-02-21T00:22:36;9.23;;;6.77;;
14294;SDS011;7231;59.370;18.016;2024-02-21T00:25:04;12.00;;;7.07;;
14294;SDS011;7231;59.370;18.016;2024-02-21T00:27:33;10.60;;;7.57;;
14294;SDS011;7231;59.370;18.016;2024-02-21T00:30:01;10.70;;;6.93;;
14294;SDS011;7231;59.370;18.016;2024-02-21T00:32:31;9.67;;;6.80;;
14294;SDS011;7231;59.370;18.016;2024-02-21T00:35:00;7.33;;;5.03;;
14294;SDS011;7231;59.370;18.016;2024-02-21T00:37:29;10.57;;;6.63;;
14294;SDS011;7231;59.370;18.016;2024-02-21T00:39:57;7.37;;;5.13;;
14294;SDS011;7231;59.370;18.016;2024-02-21T00:42:25;8.00;;;5.50;;
14294;SDS011;7231;59.370;18.016;2024-02-21T00:44:53;7.63;;;5.57;;
14294;SDS011;7231;59.370;18.016;2024-02-21T00:47:21;6.87;;;5.30;;
14294;SDS011;7231;59.370;18.016;2024-02-21T00:49:51;7.93;;;5.80;;
14294;SDS011;7231;59.370;18.016;2024-02-21T00:52:19;8.27;;;6.10;;
14294;SDS011;7231;59.370;18.016;2024-02-21T00:54:47;9.83;;;6.73;;
14294;SDS011;7231;59.370;18.016;2024-02-21T00:57:20;9.00;;;6.20;;
14294;SDS011;7231;59.370;18.016;2024-02-21T00:59:48;8.60;;;6.40;;
14294;SDS011;7231;59.370;18.016;2024-02-21T01:02:17;11.00;;;7.30;;
14294;SDS011;7231;59.370;18.016;2024-02-21T01:04:45;8.53;;;6.23;;
14294;SDS011;7231;59.370;18.016;2024-02-21T01:07:16;9.17;;;6.00;;
14294;SDS011;7231;59.370;18.016;2024-02-21T01:09:45;9.20;;;5.70;;
14294;SDS011;7231;59.370;18.016;2024-02-21T01:12:13;8.63;;;5.90;;
14294;SDS011;7231;59.370;18.016;2024-02-21T01:14:41;9.27;;;6.53;;
14294;SDS011;7231;59.370;18.016;2024-02-21T01:17:09;11.47;;;6.27;;
14294;SDS011;7231;59.370;18.016;2024-02-21T01:19:37;8.30;;;6.00;;
14294;SDS011;7231;59.370;18.016;2024-02-21T01:22:06;8.47;;;5.63;;
14294;SDS011;7231;59.370;18.016;2024-02-21T01:24:35;8.67;;;6.27;;
14294;SDS011;7231;59.370;18.016;2024-02-21T01:27:04;10.03;;;6.03;;
14294;SDS011;7231;59.370;18.016;2024-02-21T01:29:32;11.83;;;6.00;;
14294;SDS011;7231;59.370;18.016;2024-02-21T01:32:00;10.63;;;6.00;;
14294;SDS011;7231;59.370;18.016;2024-02-21T01:34:28;13.67;;;5.67;;
14294;SDS011;7231;59.370;18.016;2024-02-21T01:36:58;13.17;;;6.57;;
14294;SDS011;7231;59.370;18.016;2024-02-21T01:39:32;16.43;;;6.03;;
14294;SDS011;7231;59.370;18.016;2024-02-21T01:42:01;14.93;;;6.97;;
14294;SDS011;7231;59.370;18.016;2024-02-21T01:44:30;17.03;;;6.60;;
14294;SDS011;7231;59.370;18.016;2024-02-21T01:46:59;20.43;;;7.70;;
14294;SDS011;7231;59.370;18.016;2024-02-21T01:49:27;11.67;;;7.00;;
14294;SDS011;7231;59.370;18.016;2024-02-21T01:51:55;20.13;;;7.87;;
14294;SDS011;7231;59.370;18.016;2024-02-21T01:54:24;15.30;;;6.93;;
14294;SDS011;7231;59.370;18.016;2024-02-21T01:56:55;17.07;;;7.23;;
14294;SDS011;7231;59.370;18.016;2024-02-21T01:59:25;15.73;;;8.20;;
14294;SDS011;7231;59.370;18.016;2024-02-21T02:01:53;19.20;;;8.20;;
14294;SDS011;7231;59.370;18.016;2024-02-21T02:04:23;15.37;;;7.37;;
14294;SDS011;7231;59.370;18.016;2024-02-21T02:06:54;14.50;;;6.90;;
14294;SDS011;7231;59.370;18.016;2024-02-21T02:09:22;18.13;;;7.33;;
14294;SDS011;7231;59.370;18.016;2024-02-21T02:11:50;18.20;;;7.67;;
14294;SDS011;7231;59.370;18.016;2024-02-21T02:14:19;16.67;;;7.63;;
14294;SDS011;7231;59.370;18.016;2024-02-21T02:16:48;18.40;;;8.03;;
14294;SDS011;7231;59.370;18.016;2024-02-21T02:19:16;18.47;;;7.97;;
14294;SDS011;7231;59.370;18.016;2024-02-21T02:21:46;20.60;;;8.17;;
14294;SDS011;7231;59.370;18.016;2024-02-21T02:24:21;20.60;;;7.97;;
14294;SDS011;7231;59.370;18.016;2024-02-21T02:26:51;18.30;;;7.37;;
14294;SDS011;7231;59.370;18.016;2024-02-21T02:29:19;16.70;;;7.67;;
14294;SDS011;7231;59.370;18.016;2024-02-21T02:31:48;21.70;;;7.40;;
14294;SDS011;7231;59.370;18.016;2024-02-21T02:34:17;22.53;;;8.20;;
14294;SDS011;7231;59.370;18.016;2024-02-21T02:36:45;21.07;;;7.97;;
14294;SDS011;7231;59.370;18.016;2024-02-21T02:39:15;21.83;;;8.87;;
14294;SDS011;7231;59.370;18.016;2024-02-21T02:41:45;22.77;;;9.30;;
14294;SDS011;7231;59.370;18.016;2024-02-21T02:44:13;24.23;;;8.30;;
14294;SDS011;7231;59.370;18.016;2024-02-21T02:46:41;23.87;;;9.23;;
14294;SDS011;7231;59.370;18.016;2024-02-21T02:49:10;24.97;;;9.83;;
14294;SDS011;7231;59.370;18.016;2024-02-21T02:51:40;19.97;;;8.50;;
14294;SDS011;7231;59.370;18.016;2024-02-21T02:54:09;20.93;;;9.43;;
14294;SDS011;7231;59.370;18.016;2024-02-21T02:56:37;20.60;;;8.87;;
14294;SDS011;7231;59.370;18.016;2024-02-21T02:59:07;23.43;;;9.70;;
14294;SDS011;7231;59.370;18.016;2024-02-21T03:01:35;23.60;;;9.57;;
14294;SDS011;7231;59.370;18.016;2024-02-21T03:04:04;23.27;;;9.40;;
14294;SDS011;7231;59.370;18.016;2024-02-21T03:06:33;19.80;;;8.80;;
14294;SDS011;7231;59.370;18.016;2024-02-21T03:09:01;21.47;;;10.00;;
14294;SDS011;7231;59.370;18.016;2024-02-21T03:11:35;19.87;;;8.13;;
14294;SDS011;7231;59.370;18.016;2024-02-21T03:14:09;18.07;;;8.27;;
14294;SDS011;7231;59.370;18.016;2024-02-21T03:16:37;17.67;;;8.50;;
14294;SDS011;7231;59.370;18.016;2024-02-21T03:19:05;17.60;;;8.73;;
14294;SDS011;7231;59.370;18.016;2024-02-21T03:21:33;16.40;;;7.90;;
14294;SDS011;7231;59.370;18.016;2024-02-21T03:24:01;14.17;;;7.23;;
14294;SDS011;7231;59.370;18.016;2024-02-21T03:26:30;14.40;;;7.57;;
14294;SDS011;7231;59.370;18.016;2024-02-21T03:28:58;15.40;;;7.43;;
14294;SDS011;7231;59.370;18.016;2024-02-21T03:31:27;13.77;;;6.40;;
14294;SDS011;7231;59.370;18.016;2024-02-21T03:33:58;16.10;;;7.37;;
14294;SDS011;7231;59.370;18.016;2024-02-21T03:36:26;14.47;;;6.33;;
14294;SDS011;7231;59.370;18.016;2024-02-21T03:38:54;11.80;;;6.47;;
14294;SDS011;7231;59.370;18.016;2024-02-21T03:41:23;11.53;;;5.97;;
14294;SDS011;7231;59.370;18.016;2024-02-21T03:43:51;10.67;;;5.87;;
14294;SDS011;7231;59.370;18.016;2024-02-21T03:46:18;12.40;;;6.13;;
14294;SDS011;7231;59.370;18.016;2024-02-21T03:48:50;9.23;;;5.17;;
14294;SDS011;7231;59.370;18.016;2024-02-21T03:51:19;8.60;;;4.70;;
14294;SDS011;7231;59.370;18.016;2024-02-21T03:53:47;11.77;;;4.73;;
14294;SDS011;7231;59.370;18.016;2024-02-21T03:56:15;8.63;;;4.93;;
14294;SDS011;7231;59.370;18.016;2024-02-21T03:58:43;9.90;;;4.43;;
14294;SDS011;7231;59.370;18.016;2024-02-21T04:01:11;9.47;;;4.67;;
14294;SDS011;7231;59.370;18.016;2024-02-21T04:03:40;9.10;;;3.97;;
14294;SDS011;7231;59.370;18.016;2024-02-21T04:06:09;7.97;;;4.37;;
14294;SDS011;7231;59.370;18.016;2024-02-21T04:08:38;7.90;;;4.27;;
14294;SDS011;7231;59.370;18.016;2024-02-21T04:11:06;6.73;;;4.07;;
14294;SDS011;7231;59.370;18.016;2024-02-21T04:13:35;7.97;;;4.23;;
14294;SDS011;7231;59.370;18.016;2024-02-21T04:16:03;8.43;;;4.67;;
14294;SDS011;7231;59.370;18.016;2024-02-21T04:18:32;10.33;;;4.30;;
14294;SDS011;7231;59.370;18.016;2024-02-21T04:21:00;9.53;;;4.93;;
14294;SDS011;7231;59.370;18.016;2024-02-21T04:23:30;9.33;;;4.60;;
14294;SDS011;7231;59.370;18.016;2024-02-21T04:25:58;10.60;;;4.00;;
14294;SDS011;7231;59.370;18.016;2024-02-21T04:28:26;5.70;;;3.93;;
14294;SDS011;7231;59.370;18.016;2024-02-21T04:30:54;7.47;;;4.17;;
14294;SDS011;7231;59.370;18.016;2024-02-21T04:33:22;8.20;;;3.97;;
14294;SDS011;7231;59.370;18.016;2024-02-21T04:35:50;8.33;;;3.77;;
14294;SDS011;7231;59.370;18.016;2024-02-21T04:38:21;6.80;;;3.90;;
14294;SDS011;7231;59.370;18.016;2024-02-21T04:40:51;10.00;;;4.00;;
14294;SDS011;7231;59.370;18.016;2024-02-21T04:43:19;7.70;;;3.27;;
14294;SDS011;7231;59.370;18.016;2024-02-21T04:45:47;8.03;;;3.60;;
14294;SDS011;7231;59.370;18.016;2024-02-21T04:48:16;5.80;;;3.30;;
14294;SDS011;7231;59.370;18.016;2024-02-21T04:50:44;9.00;;;4.10;;
14294;SDS011;7231;59.370;18.016;2024-02-21T04:53:12;5.43;;;3.50;;
14294;SDS011;7231;59.370;18.016;2024-02-21T04:55:40;5.13;;;3.57;;
14294;SDS011;7231;59.370;18.016;2024-02-21T04:58:10;6.37;;;3.63;;
14294;SDS011;7231;59.370;18.016;2024-02-21T05:00:38;8.53;;;3.90;;
14294;SDS011;7231;59.370;18.016;2024-02-21T05:03:07;7.93;;;3.73;;
14294;SDS011;7231;59.370;18.016;2024-02-21T05:05:35;11.27;;;3.83;;
14294;SDS011;7231;59.370;18.016;2024-02-21T05:08:03;9.40;;;3.93;;
14294;SDS011;7231;59.370;18.016;2024-02-21T05:10:32;7.30;;;3.73;;
14294;SDS011;7231;59.370;18.016;2024-02-21T05:13:00;11.13;;;4.60;;
14294;SDS011;7231;59.370;18.016;2024-02-21T05:15:30;8.17;;;3.63;;
14294;SDS011;7231;59.370;18.016;2024-02-21T05:17:59;7.33;;;3.73;;
14294;SDS011;7231;59.370;18.016;2024-02-21T05:20:27;7.97;;;3.80;;
14294;SDS011;7231;59.370;18.016;2024-02-21T05:22:56;7.73;;;3.67;;
14294;SDS011;7231;59.370;18.016;2024-02-21T05:25:24;11.57;;;4.33;;
14294;SDS011;7231;59.370;18.016;2024-02-21T05:27:53;11.40;;;4.10;;
14294;SDS011;7231;59.370;18.016;2024-02-21T05:30:22;8.93;;;3.47;;
14294;SDS011;7231;59.370;18.016;2024-02-21T05:32:51;9.97;;;4.03;;
14294;SDS011;7231;59.370;18.016;2024-02-21T05:35:24;13.77;;;4.70;;
14294;SDS011;7231;59.370;18.016;2024-02-21T05:37:53;12.47;;;4.30;;
14294;SDS011;7231;59.370;18.016;2024-02-21T05:40:21;8.97;;;4.73;;
14294;SDS011;7231;59.370;18.016;2024-02-21T05:42:50;12.03;;;4.10;;
14294;SDS011;7231;59.370;18.016;2024-02-21T05:45:18;10.57;;;4.13;;
14294;SDS011;7231;59.370;18.016;2024-02-21T05:47:46;11.10;;;4.47;;
14294;SDS011;7231;59.370;18.016;2024-02-21T05:50:16;13.20;;;5.17;;
14294;SDS011;7231;59.370;18.016;2024-02-21T05:52:45;12.10;;;5.00;;
14294;SDS011;7231;59.370;18.016;2024-02-21T05:55:14;15.43;;;5.00;;
14294;SDS011;7231;59.370;18.016;2024-02-21T05:57:42;9.83;;;5.07;;
14294;SDS011;7231;59.370;18.016;2024-02-21T06:00:10;10.27;;;5.30;;
14294;SDS011;7231;59.370;18.016;2024-02-21T06:02:39;14.00;;;5.00;;
14294;SDS011;7231;59.370;18.016;2024-02-21T06:05:08;11.70;;;5.63;;
14294;SDS011;7231;59.370;18.016;2024-02-21T06:07:38;10.03;;;5.20;;
14294;SDS011;7231;59.370;18.016;2024-02-21T06:10:07;16.50;;;5.33;;
14294;SDS011;7231;59.370;18.016;2024-02-21T06:12:35;12.50;;;5.67;;
14294;SDS011;7231;59.370;18.016;2024-02-21T06:15:04;15.13;;;6.23;;
14294;SDS011;7231;59.370;18.016;2024-02-21T06:17:33;12.13;;;5.73;;
14294;SDS011;7231;59.370;18.016;2024-02-21T06:20:01;13.50;;;6.23;;
14294;SDS011;7231;59.370;18.016;2024-02-21T06:22:30;15.50;;;6.70;;
14294;SDS011;7231;59.370;18.016;2024-02-21T06:24:59;14.77;;;7.00;;
14294;SDS011;7231;59.370;18.016;2024-02-21T06:27:28;15.50;;;6.63;;
14294;SDS011;7231;59.370;18.016;2024-02-21T06:29:56;17.33;;;7.70;;
14294;SDS011;7231;59.370;18.016;2024-02-21T06:32:24;18.03;;;7.00;;
14294;SDS011;7231;59.370;18.016;2024-02-21T06:34:53;18.83;;;7.77;;
14294;SDS011;7231;59.370;18.016;2024-02-21T06:37:21;18.80;;;8.00;;
14294;SDS011;7231;59.370;18.016;2024-02-21T06:39:49;18.07;;;7.40;;
14294;SDS011;7231;59.370;18.016;2024-02-21T06:42:19;16.40;;;7.10;;
14294;SDS011;7231;59.370;18.016;2024-02-21T06:44:48;16.20;;;7.53;;
14294;SDS011;7231;59.370;18.016;2024-02-21T06:47:16;17.50;;;7.97;;
14294;SDS011;7231;59.370;18.016;2024-02-21T06:49:47;17.30;;;7.40;;
14294;SDS011;7231;59.370;18.016;2024-02-21T06:52:17;19.37;;;8.13;;
14294;SDS011;7231;59.370;18.016;2024-02-21T06:54:46;19.73;;;8.27;;
14294;SDS011;7231;59.370;18.016;2024-02-21T06:57:15;18.17;;;8.23;;
14294;SDS011;7231;59.370;18.016;2024-02-21T06:59:44;20.93;;;7.83;;
14294;SDS011;7231;59.370;18.016;2024-02-21T07:02:12;15.50;;;7.43;;
14294;SDS011;7231;59.370;18.016;2024-02-21T07:04:41;17.13;;;8.20;;
14294;SDS011;7231;59.370;18.016;2024-02-21T07:07:10;17.13;;;8.03;;
14294;SDS011;7231;59.370;18.016;2024-02-21T07:09:39;17.40;;;7.47;;
14294;SDS011;7231;59.370;18.016;2024-02-21T07:12:08;20.63;;;8.10;;
14294;SDS011;7231;59.370;18.016;2024-02-21T07:14:37;17.00;;;8.03;;
14294;SDS011;7231;59.370;18.016;2024-02-21T07:17:06;18.33;;;7.83;;
14294;SDS011;7231;59.370;18.016;2024-02-21T07:19:35;19.20;;;8.00;;
14294;SDS011;7231;59.370;18.016;2024-02-21T07:22:03;16.77;;;8.17;;
14294;SDS011;7231;59.370;18.016;2024-02-21T07:24:31;18.37;;;8.57;;
14294;SDS011;7231;59.370;18.016;2024-02-21T07:27:00;17.33;;;7.87;;
14294;SDS011;7231;59.370;18.016;2024-02-21T07:29:31;13.60;;;7.23;;
14294;SDS011;7231;59.370;18.016;2024-02-21T07:31:59;19.30;;;8.07;;
14294;SDS011;7231;59.370;18.016;2024-02-21T07:34:29;19.17;;;7.73;;
14294;SDS011;7231;59.370;18.016;2024-02-21T07:36:57;20.73;;;8.47;;
14294;SDS011;7231;59.370;18.016;2024-02-21T07:39:25;19.73;;;8.37;;
14294;SDS011;7231;59.370;18.016;2024-02-21T07:41:54;22.27;;;8.00;;
14294;SDS011;7231;59.370;18.016;2024-02-21T07:44:22;21.43;;;8.27;;
14294;SDS011;7231;59.370;18.016;2024-02-21T07:46:50;16.50;;;8.53;;
14294;SDS011;7231;59.370;18.016;2024-02-21T07:49:18;21.00;;;8.50;;
14294;SDS011;7231;59.370;18.016;2024-02-21T07:51:48;19.70;;;8.80;;
14294;SDS011;7231;59.370;18.016;2024-02-21T07:54:16;17.77;;;8.50;;
14294;SDS011;7231;59.370;18.016;2024-02-21T07:56:46;18.07;;;7.80;;
14294;SDS011;7231;59.370;18.016;2024-02-21T07:59:15;21.43;;;8.87;;
14294;SDS011;7231;59.370;18.016;2024-02-21T08:01:43;21.60;;;9.03;;
14294;SDS011;7231;59.370;18.016;2024-02-21T08:04:12;18.30;;;8.60;;
14294;SDS011;7231;59.370;18.016;2024-02-21T08:06:41;22.67;;;9.47;;
14294;SDS011;7231;59.370;18.016;2024-02-21T08:09:11;20.00;;;8.70;;
14294;SDS011;7231;59.370;18.016;2024-02-21T08:11:39;19.25;;;9.50;;
14294;SDS011;7231;59.370;18.016;2024-02-21T08:14:07;23.17;;;8.70;;
14294;SDS011;7231;59.370;18.016;2024-02-21T08:16:35;21.70;;;9.27;;
14294;SDS011;7231;59.370;18.016;2024-02-21T08:19:04;28.20;;;8.90;;
14294;SDS011;7231;59.370;18.016;2024-02-21T08:21:32;21.33;;;8.60;;
14294;SDS011;7231;59.370;18.016;2024-02-21T08:24:00;22.20;;;8.45;;
14294;SDS011;7231;59.370;18.016;2024-02-21T08:26:30;22.08;;;8.38;;
14294;SDS011;7231;59.370;18.016;2024-02-21T08:28:59;20.00;;;9.00;;
14294;SDS011;7231;59.370;18.016;2024-02-21T08:31:27;24.65;;;8.68;;
14294;SDS011;7231;59.370;18.016;2024-02-21T08:33:58;26.17;;;8.63;;
14294;SDS011;7231;59.370;18.016;2024-02-21T08:36:29;24.83;;;8.38;;
14294;SDS011;7231;59.370;18.016;2024-02-21T08:38:59;24.20;;;8.05;;
14294;SDS011;7231;59.370;18.016;2024-02-21T08:41:31;23.47;;;8.70;;
14294;SDS011;7231;59.370;18.016;2024-02-21T08:44:21;26.33;;;8.27;;
14294;SDS011;7231;59.370;18.016;2024-02-21T08:46:50;15.23;;;6.97;;
14294;SDS011;7231;59.370;18.016;2024-02-21T08:49:18;27.75;;;7.72;;
14294;SDS011;7231;59.370;18.016;2024-02-21T08:51:47;20.20;;;8.30;;
14294;SDS011;7231;59.370;18.016;2024-02-21T08:54:15;26.30;;;8.45;;
14294;SDS011;7231;59.370;18.016;2024-02-21T08:56:45;21.27;;;7.90;;
14294;SDS011;7231;59.370;18.016;2024-02-21T08:59:13;18.00;;;7.17;;
14294;SDS011;7231;59.370;18.016;2024-02-21T09:01:41;22.58;;;7.70;;
14294;SDS011;7231;59.370;18.016;2024-02-21T09:04:10;22.35;;;7.90;;
14294;SDS011;7231;59.370;18.016;2024-02-21T09:06:38;19.83;;;7.60;;
14294;SDS011;7231;59.370;18.016;2024-02-21T09:09:09;21.75;;;7.85;;
14294;SDS011;7231;59.370;18.016;2024-02-21T09:11:37;24.10;;;7.75;;
14294;SDS011;7231;59.370;18.016;2024-02-21T09:14:07;21.95;;;8.02;;
14294;SDS011;7231;59.370;18.016;2024-02-21T09:16:36;19.92;;;7.85;;
14294;SDS011;7231;59.370;18.016;2024-02-21T09:19:04;20.98;;;8.10;;
14294;SDS011;7231;59.370;18.016;2024-02-21T09:21:32;20.02;;;7.65;;
14294;SDS011;7231;59.370;18.016;2024-02-21T09:24:00;14.95;;;7.45;;
14294;SDS011;7231;59.370;18.016;2024-02-21T09:26:29;24.00;;;8.80;;
14294;SDS011;7231;59.370;18.016;2024-02-21T09:28:57;17.67;;;7.65;;
14294;SDS011;7231;59.370;18.016;2024-02-21T09:31:27;22.77;;;7.82;;
14294;SDS011;7231;59.370;18.016;2024-02-21T09:33:56;16.67;;;7.07;;
14294;SDS011;7231;59.370;18.016;2024-02-21T09:36:24;15.80;;;7.28;;
14294;SDS011;7231;59.370;18.016;2024-02-21T09:38:52;14.85;;;6.35;;
14294;SDS011;7231;59.370;18.016;2024-02-21T09:41:22;14.30;;;6.47;;
14294;SDS011;7231;59.370;18.016;2024-02-21T09:43:54;18.38;;;6.80;;
14294;SDS011;7231;59.370;18.016;2024-02-21T09:46:24;19.33;;;7.97;;
14294;SDS011;7231;59.370;18.016;2024-02-21T09:49:06;22.38;;;7.28;;
14294;SDS011;7231;59.370;18.016;2024-02-21T09:51:41;20.33;;;7.15;;
14294;SDS011;7231;59.370;18.016;2024-02-21T09:54:12;20.20;;;6.90;;
14294;SDS011;7231;59.370;18.016;2024-02-21T09:56:44;18.52;;;6.85;;
14294;SDS011;7231;59.370;18.016;2024-02-21T09:59:13;15.35;;;7.05;;
14294;SDS011;7231;59.370;18.016;2024-02-21T10:01:44;18.92;;;7.00;;
14294;SDS011;7231;59.370;18.016;2024-02-21T10:04:14;17.40;;;6.53;;
14294;SDS011;7231;59.370;18.016;2024-02-21T10:06:42;13.90;;;6.68;;
14294;SDS011;7231;59.370;18.016;2024-02-21T10:09:19;14.65;;;6.80;;
14294;SDS011;7231;59.370;18.016;2024-02-21T10:11:50;10.68;;;5.70;;
14294;SDS011;7231;59.370;18.016;2024-02-21T10:14:18;11.77;;;5.75;;
14294;SDS011;7231;59.370;18.016;2024-02-21T10:16:48;12.82;;;5.95;;
14294;SDS011;7231;59.370;18.016;2024-02-21T10:19:24;7.65;;;5.38;;
14294;SDS011;7231;59.370;18.016;2024-02-21T10:21:59;13.52;;;5.40;;
14294;SDS011;7231;59.370;18.016;2024-02-21T10:24:30;14.18;;;6.60;;
14294;SDS011;7231;59.370;18.016;2024-02-21T10:26:59;12.25;;;5.78;;
14294;SDS011;7231;59.370;18.016;2024-02-21T10:29:30;10.63;;;5.03;;
14294;SDS011;7231;59.370;18.016;2024-02-21T10:32:06;9.13;;;4.90;;
14294;SDS011;7231;59.370;18.016;2024-02-21T10:34:36;9.05;;;4.72;;
14294;SDS011;7231;59.370;18.016;2024-02-21T10:37:06;10.57;;;5.50;;
14294;SDS011;7231;59.370;18.016;2024-02-21T10:39:36;10.15;;;5.22;;
14294;SDS011;7231;59.370;18.016;2024-02-21T10:42:05;12.65;;;5.68;;
14294;SDS011;7231;59.370;18.016;2024-02-21T10:44:36;7.32;;;4.20;;
14294;SDS011;7231;59.370;18.016;2024-02-21T10:47:08;10.02;;;5.13;;
14294;SDS011;7231;59.370;18.016;2024-02-21T10:49:38;9.38;;;5.03;;
14294;SDS011;7231;59.370;18.016;2024-02-21T10:52:13;8.55;;;5.00;;
14294;SDS011;7231;59.370;18.016;2024-02-21T10:54:44;13.82;;;6.57;;
14294;SDS011;7231;59.370;18.016;2024-02-21T10:57:14;8.52;;;4.93;;
14294;SDS011;7231;59.370;18.016;2024-02-21T10:59:44;8.30;;;4.70;;
14294;SDS011;7231;59.370;18.016;2024-02-21T11:02:14;9.90;;;5.68;;
14294;SDS011;7231;59.370;18.016;2024-02-21T11:04:42;6.85;;;4.22;;
14294;SDS011;7231;59.370;18.016;2024-02-21T11:07:12;9.05;;;4.35;;
14294;SDS011;7231;59.370;18.016;2024-02-21T11:09:50;8.65;;;4.95;;
14294;SDS011;7231;59.370;18.016;2024-02-21T11:12:20;8.48;;;5.00;;
14294;SDS011;7231;59.370;18.016;2024-02-21T11:14:49;7.68;;;4.40;;
14294;SDS011;7231;59.370;18.016;2024-02-21T11:17:19;9.77;;;4.72;;
14294;SDS011;7231;59.370;18.016;2024-02-21T11:19:52;8.02;;;4.60;;
14294;SDS011;7231;59.370;18.016;2024-02-21T11:22:21;11.45;;;5.07;;
14294;SDS011;7231;59.370;18.016;2024-02-21T11:24:51;9.95;;;4.57;;
14294;SDS011;7231;59.370;18.016;2024-02-21T11:27:20;8.77;;;4.63;;
14294;SDS011;7231;59.370;18.016;2024-02-21T11:29:54;6.15;;;4.43;;
14294;SDS011;7231;59.370;18.016;2024-02-21T11:32:25;6.43;;;4.25;;
14294;SDS011;7231;59.370;18.016;2024-02-21T11:34:54;7.78;;;4.80;;
14294;SDS011;7231;59.370;18.016;2024-02-21T11:37:24;7.70;;;4.45;;
14294;SDS011;7231;59.370;18.016;2024-02-21T11:39:54;9.77;;;5.30;;
14294;SDS011;7231;59.370;18.016;2024-02-21T11:42:22;7.68;;;4.35;;
14294;SDS011;7231;59.370;18.016;2024-02-21T11:44:52;5.97;;;4.13;;
14294;SDS011;7231;59.370;18.016;2024-02-21T11:47:25;11.57;;;5.53;;
14294;SDS011;7231;59.370;18.016;2024-02-21T11:49:53;10.57;;;5.72;;
14294;SDS011;7231;59.370;18.016;2024-02-21T11:52:22;5.88;;;4.05;;
14294;SDS011;7231;59.370;18.016;2024-02-21T11:54:53;5.15;;;3.92;;
14294;SDS011;7231;59.370;18.016;2024-02-21T11:57:24;7.07;;;3.83;;
14294;SDS011;7231;59.370;18.016;2024-02-21T11:59:53;8.90;;;4.35;;
14294;SDS011;7231;59.370;18.016;2024-02-21T12:02:27;11.00;;;4.80;;
14294;SDS011;7231;59.370;18.016;2024-02-21T12:04:55;7.72;;;4.63;;
14294;SDS011;7231;59.370;18.016;2024-02-21T12:07:24;6.65;;;4.43;;
14294;SDS011;7231;59.370;18.016;2024-02-21T12:09:58;9.55;;;4.90;;
14294;SDS011;7231;59.370;18.016;2024-02-21T12:12:27;8.18;;;4.75;;
14294;SDS011;7231;59.370;18.016;2024-02-21T12:14:56;6.85;;;4.82;;
14294;SDS011;7231;59.370;18.016;2024-02-21T12:17:24;8.13;;;5.00;;
14294;SDS011;7231;59.370;18.016;2024-02-21T12:19:54;7.20;;;4.68;;
14294;SDS011;7231;59.370;18.016;2024-02-21T12:22:22;7.45;;;4.60;;
14294;SDS011;7231;59.370;18.016;2024-02-21T12:24:52;9.75;;;4.43;;
14294;SDS011;7231;59.370;18.016;2024-02-21T12:27:21;10.10;;;5.10;;
14294;SDS011;7231;59.370;18.016;2024-02-21T12:29:50;6.43;;;4.57;;
14294;SDS011;7231;59.370;18.016;2024-02-21T12:32:18;9.13;;;4.75;;
14294;SDS011;7231;59.370;18.016;2024-02-21T12:34:48;7.00;;;5.22;;
14294;SDS011;7231;59.370;18.016;2024-02-21T12:37:21;7.00;;;5.28;;
14294;SDS011;7231;59.370;18.016;2024-02-21T12:39:49;7.80;;;5.25;;
14294;SDS011;7231;59.370;18.016;2024-02-21T12:42:18;12.63;;;5.57;;
14294;SDS011;7231;59.370;18.016;2024-02-21T12:44:46;8.35;;;5.22;;
14294;SDS011;7231;59.370;18.016;2024-02-21T12:47:14;8.02;;;4.88;;
14294;SDS011;7231;59.370;18.016;2024-02-21T12:49:42;6.75;;;5.13;;
14294;SDS011;7231;59.370;18.016;2024-02-21T12:52:13;6.97;;;5.03;;
14294;SDS011;7231;59.370;18.016;2024-02-21T12:54:41;9.52;;;6.32;;
14294;SDS011;7231;59.370;18.016;2024-02-21T12:57:10;10.18;;;5.93;;
14294;SDS011;7231;59.370;18.016;2024-02-21T12:59:38;9.63;;;6.25;;
14294;SDS011;7231;59.370;18.016;2024-02-21T13:02:06;10.48;;;6.65;;
14294;SDS011;7231;59.370;18.016;2024-02-21T13:04:35;10.80;;;6.70;;
14294;SDS011;7231;59.370;18.016;2024-02-21T13:07:07;11.48;;;6.10;;
14294;SDS011;7231;59.370;18.016;2024-02-21T13:09:37;10.43;;;6.55;;
14294;SDS011;7231;59.370;18.016;2024-02-21T13:12:05;10.63;;;6.55;;
14294;SDS011;7231;59.370;18.016;2024-02-21T13:14:34;9.38;;;5.78;;
14294;SDS011;7231;59.370;18.016;2024-02-21T13:17:04;8.95;;;6.25;;
14294;SDS011;7231;59.370;18.016;2024-02-21T13:19:33;7.22;;;5.82;;
14294;SDS011;7231;59.370;18.016;2024-02-21T13:22:02;11.65;;;6.35;;
14294;SDS011;7231;59.370;18.016;2024-02-21T13:24:30;11.55;;;6.80;;
14294;SDS011;7231;59.370;18.016;2024-02-21T13:27:00;12.10;;;7.00;;
14294;SDS011;7231;59.370;18.016;2024-02-21T13:29:28;11.88;;;6.78;;
14294;SDS011;7231;59.370;18.016;2024-02-21T13:31:56;12.15;;;6.45;;
14294;SDS011;7231;59.370;18.016;2024-02-21T13:34:24;9.70;;;6.43;;
14294;SDS011;7231;59.370;18.016;2024-02-21T13:36:53;9.70;;;6.20;;
14294;SDS011;7231;59.370;18.016;2024-02-21T13:39:21;9.18;;;5.82;;
14294;SDS011;7231;59.370;18.016;2024-02-21T13:41:49;11.02;;;6.80;;
14294;SDS011;7231;59.370;18.016;2024-02-21T13:44:18;8.82;;;6.90;;
14294;SDS011;7231;59.370;18.016;2024-02-21T13:46:47;9.00;;;6.60;;
14294;SDS011;7231;59.370;18.016;2024-02-21T13:49:15;12.45;;;7.18;;
14294;SDS011;7231;59.370;18.016;2024-02-21T13:51:43;9.02;;;6.90;;
14294;SDS011;7231;59.370;18.016;2024-02-21T13:54:12;11.60;;;7.00;;
14294;SDS011;7231;59.370;18.016;2024-02-21T13:56:43;10.45;;;6.45;;
14294;SDS011;7231;59.370;18.016;2024-02-21T13:59:12;11.48;;;7.25;;
14294;SDS011;7231;59.370;18.016;2024-02-21T14:01:42;10.07;;;6.38;;
14294;SDS011;7231;59.370;18.016;2024-02-21T14:04:10;10.68;;;6.95;;
14294;SDS011;7231;59.370;18.016;2024-02-21T14:06:38;11.32;;;6.90;;
14294;SDS011;7231;59.370;18.016;2024-02-21T14:09:10;9.27;;;6.65;;
14294;SDS011;7231;59.370;18.016;2024-02-21T14:11:38;9.63;;;6.38;;
14294;SDS011;7231;59.370;18.016;2024-02-21T14:14:08;11.32;;;7.07;;
14294;SDS011;7231;59.370;18.016;2024-02-21T14:16:36;15.07;;;7.75;;
14294;SDS011;7231;59.370;18.016;2024-02-21T14:19:06;17.08;;;7.43;;
14294;SDS011;7231;59.370;18.016;2024-02-21T14:21:35;12.90;;;7.38;;
14294;SDS011;7231;59.370;18.016;2024-02-21T14:24:04;12.13;;;7.82;;
14294;SDS011;7231;59.370;18.016;2024-02-21T14:26:32;13.57;;;7.85;;
14294;SDS011;7231;59.370;18.016;2024-02-21T14:29:02;13.52;;;8.38;;
14294;SDS011;7231;59.370;18.016;2024-02-21T14:31:31;12.82;;;7.85;;
14294;SDS011;7231;59.370;18.016;2024-02-21T14:33:59;13.23;;;8.48;;
14294;SDS011;7231;59.370;18.016;2024-02-21T14:36:30;15.88;;;9.10;;
14294;SDS011;7231;59.370;18.016;2024-02-21T14:39:01;16.15;;;8.73;;
14294;SDS011;7231;59.370;18.016;2024-02-21T14:41:31;13.85;;;7.82;;
14294;SDS011;7231;59.370;18.016;2024-02-21T14:44:01;14.00;;;8.32;;
14294;SDS011;7231;59.370;18.016;2024-02-21T14:46:30;12.93;;;7.72;;
14294;SDS011;7231;59.370;18.016;2024-02-21T14:48:59;16.85;;;7.97;;